sensor_id;sensor_type;location;lat;lon;timestamp;pressure;altitude;pressure_sealevel;temperature;humidity
15750;BME280;7976;52.526;13.326;2023-05-09T00:01:41;101945.47;;;12.08;57.50
15750;BME280;7976;52.526;13.326;2023-05-09T00:04:09;101951.69;;;12.05;57.88
15750;BME280;7976;52.526;13.326;2023-05-09T00:06:36;101943.84;;;12.02;57.81
15750;BME280;7976;52.526;13.326;2023-05-09T00:09:03;101941.31;;;11.99;57.89
15750;BME280;7976;52.526;13.326;2023-05-09T00:11:32;101954.47;;;11.98;58.19
15750;BME280;7976;52.526;13.326;2023-05-09T00:13:58;101951.88;;;11.96;58.13
15750;BME280;7976;52.526;13.326;2023-05-09T00:16:25;101947.50;;;11.97;58.10
15750;BME280;7976;52.526;13.326;2023-05-09T00:18:53;101948.34;;;11.97;58.03
15750;BME280;7976;52.526;13.326;2023-05-09T00:21:20;101950.97;;;11.97;58.24
15750;BME280;7976;52.526;13.326;2023-05-09T00:23:47;101957.16;;;11.95;57.91
15750;BME280;7976;52.526;13.326;2023-05-09T00:26:15;101951.97;;;11.93;57.88
15750;BME280;7976;52.526;13.326;2023-05-09T00:28:44;101950.22;;;11.92;57.97
15750;BME280;7976;52.526;13.326;2023-05-09T00:31:11;101957.31;;;11.87;58.11
15750;BME280;7976;52.526;13.326;2023-05-09T00:33:38;101956.53;;;11.85;58.01
15750;BME280;7976;52.526;13.326;2023-05-09T00:36:05;101958.34;;;11.82;58.33
15750;BME280;7976;52.526;13.326;2023-05-09T00:38:33;101955.75;;;11.80;58.48
15750;BME280;7976;52.526;13.326;2023-05-09T00:40:59;101963.63;;;11.80;58.20
15750;BME280;7976;52.526;13.326;2023-05-09T00:43:26;101966.25;;;11.80;58.11
15750;BME280;7976;52.526;13.326;2023-05-09T00:45:54;101958.44;;;11.79;58.21
15750;BME280;7976;52.526;13.326;2023-05-09T00:48:21;101947.94;;;11.79;57.93
15750;BME280;7976;52.526;13.326;2023-05-09T00:50:48;101951.44;;;11.78;57.96
15750;BME280;7976;52.526;13.326;2023-05-09T00:53:17;101946.16;;;11.79;57.97
15750;BME280;7976;52.526;13.326;2023-05-09T00:55:44;101946.16;;;11.79;57.82
15750;BME280;7976;52.526;13.326;2023-05-09T00:58:12;101941.81;;;11.78;57.75
15750;BME280;7976;52.526;13.326;2023-05-09T01:00:39;101939.19;;;11.78;57.79
15750;BME280;7976;52.526;13.326;2023-05-09T01:03:07;101940.94;;;11.78;58.04
15750;BME280;7976;52.526;13.326;2023-05-09T01:05:51;101936.66;;;11.75;57.54
15750;BME280;7976;52.526;13.326;2023-05-09T01:08:36;101924.50;;;11.71;57.84
15750;BME280;7976;52.526;13.326;2023-05-09T01:11:12;101928.03;;;11.70;57.86
15750;BME280;7976;52.526;13.326;2023-05-09T01:13:57;101925.44;;;11.69;57.89
15750;BME280;7976;52.526;13.326;2023-05-09T01:16:34;101921.09;;;11.66;57.91
15750;BME280;7976;52.526;13.326;2023-05-09T01:19:25;101925.47;;;11.66;57.32
15750;BME280;7976;52.526;13.326;2023-05-09T01:21:57;101929.00;;;11.63;57.69
15750;BME280;7976;52.526;13.326;2023-05-09T01:24:48;101926.41;;;11.63;57.69
15750;BME280;7976;52.526;13.326;2023-05-09T01:27:38;101929.09;;;11.60;57.74
15750;BME280;7976;52.526;13.326;2023-05-09T01:30:12;101924.72;;;11.59;57.68
15750;BME280;7976;52.526;13.326;2023-05-09T01:32:42;101920.44;;;11.57;57.65
15750;BME280;7976;52.526;13.326;2023-05-09T01:35:14;101919.59;;;11.55;57.47
15750;BME280;7976;52.526;13.326;2023-05-09T01:37:45;101920.50;;;11.52;57.63
15750;BME280;7976;52.526;13.326;2023-05-09T01:40:17;101923.19;;;11.49;57.51
15750;BME280;7976;52.526;13.326;2023-05-09T01:42:52;101919.75;;;11.49;57.78
15750;BME280;7976;52.526;13.326;2023-05-09T01:45:22;101914.50;;;11.47;57.92
15750;BME280;7976;52.526;13.326;2023-05-09T01:47:52;101908.44;;;11.45;57.54
15750;BME280;7976;52.526;13.326;2023-05-09T01:50:21;101912.00;;;11.43;57.64
15750;BME280;7976;52.526;13.326;2023-05-09T01:52:53;101908.53;;;11.40;57.68
15750;BME280;7976;52.526;13.326;2023-05-09T01:55:24;101913.72;;;11.42;57.67
15750;BME280;7976;52.526;13.326;2023-05-09T01:57:53;101911.16;;;11.40;57.48
15750;BME280;7976;52.526;13.326;2023-05-09T02:00:23;101919.97;;;11.38;57.48
15750;BME280;7976;52.526;13.326;2023-05-09T02:02:53;101911.34;;;11.33;57.51
15750;BME280;7976;52.526;13.326;2023-05-09T02:05:24;101915.66;;;11.34;57.10
15750;BME280;7976;52.526;13.326;2023-05-09T02:07:54;101910.44;;;11.34;57.06
15750;BME280;7976;52.526;13.326;2023-05-09T02:10:25;101913.94;;;11.33;57.00
15750;BME280;7976;52.526;13.326;2023-05-09T02:12:53;101914.00;;;11.31;56.51
15750;BME280;7976;52.526;13.326;2023-05-09T02:15:23;101917.47;;;11.30;56.48
15750;BME280;7976;52.526;13.326;2023-05-09T02:17:50;101919.25;;;11.30;56.13
15750;BME280;7976;52.526;13.326;2023-05-09T02:20:17;101907.88;;;11.31;56.27
15750;BME280;7976;52.526;13.326;2023-05-09T02:22:44;101914.03;;;11.30;55.97
15750;BME280;7976;52.526;13.326;2023-05-09T02:25:13;101907.94;;;11.28;55.92
15750;BME280;7976;52.526;13.326;2023-05-09T02:27:43;101909.72;;;11.26;55.70
15750;BME280;7976;52.526;13.326;2023-05-09T02:30:17;101913.25;;;11.25;55.56
15750;BME280;7976;52.526;13.326;2023-05-09T02:32:49;101914.09;;;11.25;55.39
15750;BME280;7976;52.526;13.326;2023-05-09T02:35:19;101915.88;;;11.25;55.11
15750;BME280;7976;52.526;13.326;2023-05-09T02:37:48;101919.44;;;11.21;55.46
15750;BME280;7976;52.526;13.326;2023-05-09T02:40:15;101914.16;;;11.22;55.26
15750;BME280;7976;52.526;13.326;2023-05-09T02:42:43;101917.66;;;11.23;54.68
15750;BME280;7976;52.526;13.326;2023-05-09T02:45:10;101919.41;;;11.22;54.94
15750;BME280;7976;52.526;13.326;2023-05-09T02:47:38;101912.53;;;11.18;54.72
15750;BME280;7976;52.526;13.326;2023-05-09T02:50:07;101915.16;;;11.17;55.00
15750;BME280;7976;52.526;13.326;2023-05-09T02:52:36;101911.75;;;11.13;54.72
15750;BME280;7976;52.526;13.326;2023-05-09T02:55:04;101913.50;;;11.13;54.65
15750;BME280;7976;52.526;13.326;2023-05-09T02:57:34;101903.03;;;11.13;54.62
15750;BME280;7976;52.526;13.326;2023-05-09T03:00:03;101910.91;;;11.11;54.77
15750;BME280;7976;52.526;13.326;2023-05-09T03:02:33;101903.94;;;11.10;54.75
15750;BME280;7976;52.526;13.326;2023-05-09T03:05:00;101911.81;;;11.09;54.81
15750;BME280;7976;52.526;13.326;2023-05-09T03:07:29;101903.13;;;11.07;54.73
15750;BME280;7976;52.526;13.326;2023-05-09T03:09:56;101902.28;;;11.06;54.88
15750;BME280;7976;52.526;13.326;2023-05-09T03:12:23;101903.16;;;11.05;54.66
15750;BME280;7976;52.526;13.326;2023-05-09T03:14:53;101902.38;;;11.02;54.74
15750;BME280;7976;52.526;13.326;2023-05-09T03:17:19;101901.53;;;11.01;54.88
15750;BME280;7976;52.526;13.326;2023-05-09T03:19:48;101902.44;;;10.99;54.92
15750;BME280;7976;52.526;13.326;2023-05-09T03:22:15;101899.81;;;10.99;54.70
15750;BME280;7976;52.526;13.326;2023-05-09T03:24:55;101891.13;;;10.97;54.77
15750;BME280;7976;52.526;13.326;2023-05-09T03:27:22;101896.38;;;10.95;54.91
15750;BME280;7976;52.526;13.326;2023-05-09T03:29:51;101884.16;;;10.96;55.05
15750;BME280;7976;52.526;13.326;2023-05-09T03:32:19;101889.41;;;10.96;54.91
15750;BME280;7976;52.526;13.326;2023-05-09T03:34:46;101892.94;;;10.95;55.11
15750;BME280;7976;52.526;13.326;2023-05-09T03:37:12;101892.94;;;10.95;54.94
15750;BME280;7976;52.526;13.326;2023-05-09T03:39:40;101890.31;;;10.95;54.95
15750;BME280;7976;52.526;13.326;2023-05-09T03:42:08;101886.84;;;10.93;55.35
15750;BME280;7976;52.526;13.326;2023-05-09T03:44:35;101889.50;;;10.91;55.41
15750;BME280;7976;52.526;13.326;2023-05-09T03:47:02;101893.00;;;10.90;55.59
15750;BME280;7976;52.526;13.326;2023-05-09T03:49:35;101900.03;;;10.87;55.33
15750;BME280;7976;52.526;13.326;2023-05-09T03:52:02;101883.50;;;10.86;55.68
15750;BME280;7976;52.526;13.326;2023-05-09T03:54:29;101884.34;;;10.87;55.83
15750;BME280;7976;52.526;13.326;2023-05-09T03:56:56;101876.53;;;10.84;55.75
15750;BME280;7976;52.526;13.326;2023-05-09T03:59:24;101880.06;;;10.83;55.85
15750;BME280;7976;52.526;13.326;2023-05-09T04:01:52;101874.88;;;10.81;55.84
15750;BME280;7976;52.526;13.326;2023-05-09T04:04:20;101879.22;;;10.81;56.05
15750;BME280;7976;52.526;13.326;2023-05-09T04:06:47;101888.81;;;10.83;56.29
15750;BME280;7976;52.526;13.326;2023-05-09T04:09:16;101892.25;;;10.84;56.18
15750;BME280;7976;52.526;13.326;2023-05-09T04:11:44;101886.97;;;10.85;56.26
15750;BME280;7976;52.526;13.326;2023-05-09T04:14:13;101877.44;;;10.83;56.76
15750;BME280;7976;52.526;13.326;2023-05-09T04:16:41;101878.31;;;10.83;56.44
15750;BME280;7976;52.526;13.326;2023-05-09T04:19:08;101880.03;;;10.84;56.66
15750;BME280;7976;52.526;13.326;2023-05-09T04:21:35;101883.53;;;10.85;56.50
15750;BME280;7976;52.526;13.326;2023-05-09T04:24:04;101886.16;;;10.85;56.79
15750;BME280;7976;52.526;13.326;2023-05-09T04:26:36;101888.78;;;10.85;56.59
15750;BME280;7976;52.526;13.326;2023-05-09T04:29:05;101880.88;;;10.86;56.72
15750;BME280;7976;52.526;13.326;2023-05-09T04:31:33;101882.63;;;10.86;56.86
15750;BME280;7976;52.526;13.326;2023-05-09T04:34:02;101888.69;;;10.88;56.90
15750;BME280;7976;52.526;13.326;2023-05-09T04:36:31;101883.47;;;10.88;56.92
15750;BME280;7976;52.526;13.326;2023-05-09T04:38:59;101883.50;;;10.86;57.10
15750;BME280;7976;52.526;13.326;2023-05-09T04:41:26;101886.06;;;10.88;56.98
15750;BME280;7976;52.526;13.326;2023-05-09T04:43:53;101889.56;;;10.87;57.25
15750;BME280;7976;52.526;13.326;2023-05-09T04:46:21;101886.91;;;10.90;57.04
15750;BME280;7976;52.526;13.326;2023-05-09T04:48:48;101882.50;;;10.92;56.92
15750;BME280;7976;52.526;13.326;2023-05-09T04:51:16;101884.22;;;10.93;56.88
15750;BME280;7976;52.526;13.326;2023-05-09T04:53:43;101885.91;;;10.95;57.18
15750;BME280;7976;52.526;13.326;2023-05-09T04:56:10;101883.22;;;11.00;57.25
15750;BME280;7976;52.526;13.326;2023-05-09T04:58:37;101873.63;;;10.99;57.11
15750;BME280;7976;52.526;13.326;2023-05-09T05:01:08;101870.94;;;11.02;57.26
15750;BME280;7976;52.526;13.326;2023-05-09T05:03:35;101879.56;;;11.07;57.13
15750;BME280;7976;52.526;13.326;2023-05-09T05:06:03;101869.91;;;11.09;57.08
15750;BME280;7976;52.526;13.326;2023-05-09T05:08:32;101880.28;;;11.15;57.00
15750;BME280;7976;52.526;13.326;2023-05-09T05:10:59;101880.16;;;11.21;57.15
15750;BME280;7976;52.526;13.326;2023-05-09T05:13:26;101880.00;;;11.27;56.97
15750;BME280;7976;52.526;13.326;2023-05-09T05:15:56;101872.91;;;11.32;56.91
15750;BME280;7976;52.526;13.326;2023-05-09T05:18:24;101870.16;;;11.38;56.79
15750;BME280;7976;52.526;13.326;2023-05-09T05:20:51;101867.44;;;11.43;56.64
15750;BME280;7976;52.526;13.326;2023-05-09T05:23:18;101864.81;;;11.43;56.44
15750;BME280;7976;52.526;13.326;2023-05-09T05:25:46;101874.34;;;11.47;56.42
15750;BME280;7976;52.526;13.326;2023-05-09T05:28:13;101855.88;;;11.51;56.34
15750;BME280;7976;52.526;13.326;2023-05-09T05:30:40;101865.41;;;11.55;55.98
15750;BME280;7976;52.526;13.326;2023-05-09T05:33:07;101862.66;;;11.60;55.90
15750;BME280;7976;52.526;13.326;2023-05-09T05:35:34;101863.47;;;11.63;55.90
15750;BME280;7976;52.526;13.326;2023-05-09T05:38:01;101863.34;;;11.69;55.66
15750;BME280;7976;52.526;13.326;2023-05-09T05:40:28;101856.22;;;11.74;55.79
15750;BME280;7976;52.526;13.326;2023-05-09T05:42:57;101863.06;;;11.81;55.48
15750;BME280;7976;52.526;13.326;2023-05-09T05:45:25;101848.00;;;11.89;55.49
15750;BME280;7976;52.526;13.326;2023-05-09T05:47:55;101846.06;;;11.96;55.09
15750;BME280;7976;52.526;13.326;2023-05-09T05:50:23;101840.78;;;11.99;54.71
15750;BME280;7976;52.526;13.326;2023-05-09T05:52:50;101836.34;;;12.01;54.36
15750;BME280;7976;52.526;13.326;2023-05-09T05:55:18;101837.03;;;12.07;54.39
15750;BME280;7976;52.526;13.326;2023-05-09T05:57:45;101827.38;;;12.09;54.03
15750;BME280;7976;52.526;13.326;2023-05-09T06:00:16;101828.94;;;12.16;53.97
15750;BME280;7976;52.526;13.326;2023-05-09T06:02:46;101830.50;;;12.23;53.63
15750;BME280;7976;52.526;13.326;2023-05-09T06:05:21;101819.00;;;12.27;53.37
15750;BME280;7976;52.526;13.326;2023-05-09T06:07:49;101815.38;;;12.33;53.14
15750;BME280;7976;52.526;13.326;2023-05-09T06:10:16;101817.84;;;12.37;53.02
15750;BME280;7976;52.526;13.326;2023-05-09T06:12:44;101816.84;;;12.43;52.89
15750;BME280;7976;52.526;13.326;2023-05-09T06:15:11;101815.72;;;12.51;52.58
15750;BME280;7976;52.526;13.326;2023-05-09T06:17:42;101806.78;;;12.58;52.45
15750;BME280;7976;52.526;13.326;2023-05-09T06:20:10;101804.69;;;12.70;52.44
15750;BME280;7976;52.526;13.326;2023-05-09T06:22:37;101809.59;;;12.82;52.07
15750;BME280;7976;52.526;13.326;2023-05-09T06:25:04;101804.19;;;12.88;51.83
15750;BME280;7976;52.526;13.326;2023-05-09T06:27:31;101802.34;;;12.90;51.68
15750;BME280;7976;52.526;13.326;2023-05-09T06:29:58;101788.34;;;12.91;51.64
15750;BME280;7976;52.526;13.326;2023-05-09T06:32:25;101798.50;;;13.03;51.64
15750;BME280;7976;52.526;13.326;2023-05-09T06:34:53;101793.78;;;13.14;51.10
15750;BME280;7976;52.526;13.326;2023-05-09T06:37:20;101788.28;;;13.21;50.77
15750;BME280;7976;52.526;13.326;2023-05-09T06:39:46;101790.69;;;13.29;50.52
15750;BME280;7976;52.526;13.326;2023-05-09T06:42:14;101779.06;;;13.36;50.32
15750;BME280;7976;52.526;13.326;2023-05-09T06:44:43;101769.97;;;13.46;50.18
15750;BME280;7976;52.526;13.326;2023-05-09T06:47:10;101777.53;;;13.55;49.89
15750;BME280;7976;52.526;13.326;2023-05-09T06:49:36;101776.38;;;13.63;49.70
15750;BME280;7976;52.526;13.326;2023-05-09T06:52:05;101771.78;;;13.70;49.30
15750;BME280;7976;52.526;13.326;2023-05-09T06:54:31;101764.59;;;13.75;49.07
15750;BME280;7976;52.526;13.326;2023-05-09T06:56:58;101769.56;;;13.84;48.80
15750;BME280;7976;52.526;13.326;2023-05-09T06:59:26;101761.31;;;13.95;49.50
15750;BME280;7976;52.526;13.326;2023-05-09T07:01:52;101757.38;;;14.06;49.28
15750;BME280;7976;52.526;13.326;2023-05-09T07:04:20;101759.69;;;14.15;48.72
15750;BME280;7976;52.526;13.326;2023-05-09T07:06:47;101755.91;;;14.22;48.42
15750;BME280;7976;52.526;13.326;2023-05-09T07:09:15;101742.59;;;14.28;48.10
15750;BME280;7976;52.526;13.326;2023-05-09T07:11:45;101742.53;;;14.30;47.90
15750;BME280;7976;52.526;13.326;2023-05-09T07:14:11;101739.72;;;14.34;47.71
15750;BME280;7976;52.526;13.326;2023-05-09T07:16:38;101725.75;;;14.32;47.72
15750;BME280;7976;52.526;13.326;2023-05-09T07:19:05;101732.75;;;14.33;47.91
15750;BME280;7976;52.526;13.326;2023-05-09T07:21:32;101726.50;;;14.36;47.85
15750;BME280;7976;52.526;13.326;2023-05-09T07:23:59;101722.72;;;14.43;47.95
15750;BME280;7976;52.526;13.326;2023-05-09T07:26:27;101705.66;;;14.53;47.53
15750;BME280;7976;52.526;13.326;2023-05-09T07:28:54;101714.06;;;14.62;47.36
15750;BME280;7976;52.526;13.326;2023-05-09T07:31:21;101706.72;;;14.70;46.87
15750;BME280;7976;52.526;13.326;2023-05-09T07:33:48;101712.66;;;14.75;46.25
15750;BME280;7976;52.526;13.326;2023-05-09T07:36:14;101713.34;;;14.80;46.00
15750;BME280;7976;52.526;13.326;2023-05-09T07:38:44;101721.84;;;14.88;45.89
15750;BME280;7976;52.526;13.326;2023-05-09T07:41:12;101711.66;;;15.01;45.69
15750;BME280;7976;52.526;13.326;2023-05-09T07:43:40;101702.72;;;15.05;45.14
15750;BME280;7976;52.526;13.326;2023-05-09T07:46:07;101698.84;;;15.14;44.82
15750;BME280;7976;52.526;13.326;2023-05-09T07:48:34;101695.28;;;15.15;44.85
15750;BME280;7976;52.526;13.326;2023-05-09T07:51:01;101698.41;;;15.24;44.61
15750;BME280;7976;52.526;13.326;2023-05-09T07:53:27;101692.69;;;15.35;44.26
15750;BME280;7976;52.526;13.326;2023-05-09T07:55:54;101697.69;;;15.42;44.00
15750;BME280;7976;52.526;13.326;2023-05-09T07:58:22;101684.31;;;15.47;43.68
15750;BME280;7976;52.526;13.326;2023-05-09T08:00:50;101686.00;;;15.48;43.61
15750;BME280;7976;52.526;13.326;2023-05-09T08:03:17;101686.50;;;15.57;43.35
15750;BME280;7976;52.526;13.326;2023-05-09T08:05:45;101669.47;;;15.64;42.89
15750;BME280;7976;52.526;13.326;2023-05-09T08:08:15;101683.13;;;15.74;42.90
15750;BME280;7976;52.526;13.326;2023-05-09T08:10:42;101675.59;;;15.85;42.55
15750;BME280;7976;52.526;13.326;2023-05-09T08:13:10;101668.91;;;15.96;42.62
15750;BME280;7976;52.526;13.326;2023-05-09T08:15:37;101670.59;;;15.99;42.34
15750;BME280;7976;52.526;13.326;2023-05-09T08:18:05;101666.88;;;16.03;42.20
15750;BME280;7976;52.526;13.326;2023-05-09T08:20:32;101672.66;;;16.11;42.11
15750;BME280;7976;52.526;13.326;2023-05-09T08:22:59;101671.47;;;16.18;41.28
15750;BME280;7976;52.526;13.326;2023-05-09T08:25:25;101667.53;;;16.26;41.28
15750;BME280;7976;52.526;13.326;2023-05-09T08:27:52;101667.22;;;16.34;40.46
15750;BME280;7976;52.526;13.326;2023-05-09T08:30:19;101662.56;;;16.39;40.03
15750;BME280;7976;52.526;13.326;2023-05-09T08:32:46;101665.94;;;16.43;40.17
15750;BME280;7976;52.526;13.326;2023-05-09T08:35:14;101650.84;;;16.45;39.45
15750;BME280;7976;52.526;13.326;2023-05-09T08:37:41;101657.66;;;16.50;39.80
15750;BME280;7976;52.526;13.326;2023-05-09T08:40:09;101655.59;;;16.57;39.85
15750;BME280;7976;52.526;13.326;2023-05-09T08:42:36;101653.44;;;16.65;39.67
15750;BME280;7976;52.526;13.326;2023-05-09T08:45:09;101653.00;;;16.74;39.61
15750;BME280;7976;52.526;13.326;2023-05-09T08:47:37;101655.44;;;16.78;39.66
15750;BME280;7976;52.526;13.326;2023-05-09T08:50:06;101666.72;;;16.82;39.55
15750;BME280;7976;52.526;13.326;2023-05-09T08:52:35;101659.25;;;16.90;39.22
15750;BME280;7976;52.526;13.326;2023-05-09T08:55:03;101645.84;;;16.94;38.44
15750;BME280;7976;52.526;13.326;2023-05-09T08:57:32;101638.66;;;16.96;38.22
15750;BME280;7976;52.526;13.326;2023-05-09T09:00:01;101631.34;;;17.01;38.47
15750;BME280;7976;52.526;13.326;2023-05-09T09:02:31;101624.84;;;17.08;38.60
15750;BME280;7976;52.526;13.326;2023-05-09T09:04:58;101631.53;;;17.15;38.93
15750;BME280;7976;52.526;13.326;2023-05-09T09:07:27;101623.53;;;17.17;38.70
15750;BME280;7976;52.526;13.326;2023-05-09T09:09:58;101618.00;;;17.21;38.60
15750;BME280;7976;52.526;13.326;2023-05-09T09:12:26;101616.53;;;17.33;39.12
15750;BME280;7976;52.526;13.326;2023-05-09T09:14:54;101617.84;;;17.41;38.75
15750;BME280;7976;52.526;13.326;2023-05-09T09:17:24;101613.19;;;17.46;38.69
15750;BME280;7976;52.526;13.326;2023-05-09T09:19:57;101617.66;;;17.46;38.65
15750;BME280;7976;52.526;13.326;2023-05-09T09:22:31;101610.50;;;17.48;38.74
15750;BME280;7976;52.526;13.326;2023-05-09T09:24:59;101615.63;;;17.51;38.87
15750;BME280;7976;52.526;13.326;2023-05-09T09:27:27;101612.91;;;17.52;38.83
15750;BME280;7976;52.526;13.326;2023-05-09T09:29:54;101600.91;;;17.45;38.60
15750;BME280;7976;52.526;13.326;2023-05-09T09:32:32;101604.88;;;17.54;39.09
15750;BME280;7976;52.526;13.326;2023-05-09T09:35:04;101601.34;;;17.71;39.20
15750;BME280;7976;52.526;13.326;2023-05-09T09:37:33;101593.84;;;17.79;38.55
15750;BME280;7976;52.526;13.326;2023-05-09T09:40:02;101591.97;;;17.81;38.27
15750;BME280;7976;52.526;13.326;2023-05-09T09:42:41;101595.59;;;17.95;37.98
15750;BME280;7976;52.526;13.326;2023-05-09T09:45:14;101585.06;;;17.94;37.60
15750;BME280;7976;52.526;13.326;2023-05-09T09:47:44;101582.19;;;17.98;37.38
15750;BME280;7976;52.526;13.326;2023-05-09T09:50:14;101572.72;;;18.10;37.33
15750;BME280;7976;52.526;13.326;2023-05-09T09:52:43;101575.91;;;18.16;36.60
15750;BME280;7976;52.526;13.326;2023-05-09T09:55:16;101572.19;;;18.19;36.67
15750;BME280;7976;52.526;13.326;2023-05-09T09:57:43;101561.38;;;18.23;36.54
15750;BME280;7976;52.526;13.326;2023-05-09T10:00:12;101560.84;;;18.17;36.31
15750;BME280;7976;52.526;13.326;2023-05-09T10:02:49;101566.22;;;18.15;35.94
15750;BME280;7976;52.526;13.326;2023-05-09T10:05:20;101568.63;;;18.20;35.85
15750;BME280;7976;52.526;13.326;2023-05-09T10:07:54;101557.34;;;18.32;36.26
15750;BME280;7976;52.526;13.326;2023-05-09T10:10:26;101544.19;;;18.46;36.32
15750;BME280;7976;52.526;13.326;2023-05-09T10:12:56;101550.94;;;18.51;36.14
15750;BME280;7976;52.526;13.326;2023-05-09T10:15:23;101547.25;;;18.54;35.86
15750;BME280;7976;52.526;13.326;2023-05-09T10:17:55;101537.69;;;18.67;36.26
15750;BME280;7976;52.526;13.326;2023-05-09T10:20:23;101543.97;;;18.80;35.49
15750;BME280;7976;52.526;13.326;2023-05-09T10:22:55;101530.94;;;18.91;35.16
15750;BME280;7976;52.526;13.326;2023-05-09T10:25:32;101534.94;;;18.98;34.90
15750;BME280;7976;52.526;13.326;2023-05-09T10:28:10;101525.78;;;19.04;34.61
15750;BME280;7976;52.526;13.326;2023-05-09T10:30:52;101532.66;;;19.06;34.68
15750;BME280;7976;52.526;13.326;2023-05-09T10:33:25;101527.16;;;18.95;33.86
15750;BME280;7976;52.526;13.326;2023-05-09T10:35:59;101519.63;;;18.88;34.11
15750;BME280;7976;52.526;13.326;2023-05-09T10:38:29;101518.63;;;18.90;34.48
15750;BME280;7976;52.526;13.326;2023-05-09T10:40:58;101511.81;;;19.00;34.85
15750;BME280;7976;52.526;13.326;2023-05-09T10:43:26;101515.97;;;19.04;35.15
15750;BME280;7976;52.526;13.326;2023-05-09T10:45:53;101507.09;;;19.05;35.43
15750;BME280;7976;52.526;13.326;2023-05-09T10:48:21;101499.72;;;19.10;35.43
15750;BME280;7976;52.526;13.326;2023-05-09T10:50:50;101508.25;;;19.15;35.16
15750;BME280;7976;52.526;13.326;2023-05-09T10:53:17;101504.16;;;19.10;34.68
15750;BME280;7976;52.526;13.326;2023-05-09T10:55:52;101501.78;;;19.05;34.93
15750;BME280;7976;52.526;13.326;2023-05-09T10:58:31;101503.03;;;19.14;35.17
15750;BME280;7976;52.526;13.326;2023-05-09T11:01:02;101499.13;;;19.19;34.73
15750;BME280;7976;52.526;13.326;2023-05-09T11:03:52;101494.22;;;19.13;35.04
15750;BME280;7976;52.526;13.326;2023-05-09T11:06:45;101489.75;;;19.14;35.09
15750;BME280;7976;52.526;13.326;2023-05-09T11:09:25;101470.59;;;19.23;34.87
15750;BME280;7976;52.526;13.326;2023-05-09T11:11:54;101482.75;;;19.27;34.54
15750;BME280;7976;52.526;13.326;2023-05-09T11:14:38;101483.53;;;19.43;34.58
15750;BME280;7976;52.526;13.326;2023-05-09T11:17:07;101467.81;;;19.54;34.24
15750;BME280;7976;52.526;13.326;2023-05-09T11:19:37;101468.66;;;19.54;33.95
15750;BME280;7976;52.526;13.326;2023-05-09T11:22:24;101449.88;;;19.57;33.90
15750;BME280;7976;52.526;13.326;2023-05-09T11:25:01;101456.50;;;19.64;34.25
15750;BME280;7976;52.526;13.326;2023-05-09T11:27:37;101446.06;;;19.61;33.60
15750;BME280;7976;52.526;13.326;2023-05-09T11:30:08;101457.28;;;19.52;34.33
15750;BME280;7976;52.526;13.326;2023-05-09T11:32:43;101436.22;;;19.49;34.07
15750;BME280;7976;52.526;13.326;2023-05-09T11:35:12;101437.47;;;19.44;34.42
15750;BME280;7976;52.526;13.326;2023-05-09T11:37:48;101419.91;;;19.41;34.15
15750;BME280;7976;52.526;13.326;2023-05-09T11:40:17;101420.97;;;19.39;33.82
15750;BME280;7976;52.526;13.326;2023-05-09T11:42:47;101431.19;;;19.45;34.32
15750;BME280;7976;52.526;13.326;2023-05-09T11:45:16;101424.47;;;19.53;34.28
15750;BME280;7976;52.526;13.326;2023-05-09T11:47:45;101410.06;;;19.57;34.42
15750;BME280;7976;52.526;13.326;2023-05-09T11:50:13;101410.63;;;19.62;33.97
15750;BME280;7976;52.526;13.326;2023-05-09T11:52:40;101406.22;;;19.61;33.74
15750;BME280;7976;52.526;13.326;2023-05-09T11:55:10;101401.13;;;19.58;34.31
15750;BME280;7976;52.526;13.326;2023-05-09T11:57:41;101389.25;;;19.64;34.29
15750;BME280;7976;52.526;13.326;2023-05-09T12:00:10;101392.28;;;19.72;34.18
15750;BME280;7976;52.526;13.326;2023-05-09T12:02:39;101377.91;;;19.74;33.14
15750;BME280;7976;52.526;13.326;2023-05-09T12:05:08;101385.50;;;19.80;33.38
15750;BME280;7976;52.526;13.326;2023-05-09T12:07:36;101370.66;;;19.90;33.19
15750;BME280;7976;52.526;13.326;2023-05-09T12:10:06;101376.22;;;20.00;32.97
15750;BME280;7976;52.526;13.326;2023-05-09T12:12:34;101353.28;;;19.99;32.87
15750;BME280;7976;52.526;13.326;2023-05-09T12:15:03;101353.72;;;20.06;33.21
15750;BME280;7976;52.526;13.326;2023-05-09T12:17:30;101345.91;;;20.17;32.95
15750;BME280;7976;52.526;13.326;2023-05-09T12:19:59;101345.81;;;20.31;32.64
15750;BME280;7976;52.526;13.326;2023-05-09T12:22:27;101337.41;;;20.37;32.79
15750;BME280;7976;52.526;13.326;2023-05-09T12:24:55;101341.81;;;20.38;32.85
15750;BME280;7976;52.526;13.326;2023-05-09T12:27:22;101337.97;;;20.42;33.07
15750;BME280;7976;52.526;13.326;2023-05-09T12:29:51;101341.69;;;20.39;32.75
15750;BME280;7976;52.526;13.326;2023-05-09T12:32:18;101328.50;;;20.38;32.85
15750;BME280;7976;52.526;13.326;2023-05-09T12:34:45;101333.78;;;20.25;32.74
15750;BME280;7976;52.526;13.326;2023-05-09T12:37:16;101323.47;;;20.21;32.92
15750;BME280;7976;52.526;13.326;2023-05-09T12:39:43;101334.13;;;20.33;32.95
15750;BME280;7976;52.526;13.326;2023-05-09T12:42:13;101331.69;;;20.43;32.88
15750;BME280;7976;52.526;13.326;2023-05-09T12:44:48;101320.00;;;20.33;33.09
15750;BME280;7976;52.526;13.326;2023-05-09T12:47:14;101315.28;;;20.24;33.17
15750;BME280;7976;52.526;13.326;2023-05-09T12:49:41;101320.06;;;20.19;33.40
15750;BME280;7976;52.526;13.326;2023-05-09T12:52:18;101311.22;;;20.18;33.47
15750;BME280;7976;52.526;13.326;2023-05-09T12:54:46;101309.53;;;20.17;33.69
15750;BME280;7976;52.526;13.326;2023-05-09T12:57:24;101321.34;;;20.26;33.65
15750;BME280;7976;52.526;13.326;2023-05-09T12:59:57;101312.56;;;20.38;33.38
15750;BME280;7976;52.526;13.326;2023-05-09T13:02:25;101306.56;;;20.47;33.38